Geokinetics Inc (NASDAQOTH:GEOKQ)

CAPS Rating: 2 out of 5

The Company is a global provider of seismic data acquisition services in land, marsh and swamp and shallow water environments to the oil and natural gas industry.

Results 1 - 99 of 119 : 1 2 Next »
Top
Pick
Member Name Member
Rating
Start
Date
Call Time
Frame
Start
Price
Stock
Gain
Index
Gain
Score Commentary
artcorvelay < 20 5/14/2012 Outperform 1Y $1.32 -99.43% +53.65% -153.08 0 Comment
MoneyPlusSport < 20 1/25/2012 Underperform 5Y $2.00 -99.62% +57.21% +156.83 0 Comment
jdparksASI < 20 9/7/2011 Outperform 5Y $4.60 -99.84% +71.93% -171.77 0 Comment
GreenHillFarAway 28.78 8/22/2011 Outperform 5Y $3.99 -99.81% +82.34% -182.16 0 Comment
Rehydrogenated 32.67 3/29/2011 Outperform 5Y $8.68 -99.91% +57.39% -157.30 0 Comment
2011Fool 99.37 3/25/2011 Outperform NS $8.99 -99.92% +57.23% -157.15 0 Comment
LEGMAKER < 20 2/28/2011 Outperform 5Y $10.59 -99.93% +55.36% -155.29 0 Comment
hcve < 20 1/12/2011 Outperform 3W $9.41 -99.92% +61.11% -161.03 0 Comment
MagicMaggie < 20 12/7/2010 Outperform 5Y $9.35 -99.92% +66.49% -166.41 0 Comment
OberHund < 20 12/6/2010 Outperform 5Y $9.29 -99.92% +68.27% -168.19 0 Comment
tiger6667 < 20 12/1/2010 Outperform 5Y $8.51 -99.91% +71.67% -171.58 0 Comment
bullinnature 94.58 11/9/2009 11/8/2010 Outperform 3Y $12.72 -99.94% +91.15% -191.09 0 Comment
cletedinero < 20 10/18/2010 Outperform 5Y $7.31 -99.90% +74.72% -174.62 0 Comment
brilin 64.26 10/4/2010 Outperform 5Y $6.00 -99.88% +80.42% -180.30 0 Comment
smallandmidcap 97.83 8/10/2010 Underperform 5Y $4.51 -99.83% +84.19% +184.03 0 Comment
roth450 32.97 7/20/2010 Outperform NS $3.99 -99.81% +94.91% -194.72 0 Comment
EffinObama < 20 7/19/2010 Outperform 3Y $4.06 -99.82% +93.54% -193.35 0 Comment
thisyearslosers < 20 6/29/2010 Outperform 5Y $4.12 -99.82% +97.20% -197.02 0 Comment
startunderfive < 20 6/28/2010 Outperform 5Y $4.49 -99.83% +91.63% -191.47 0 Comment
institutionsdown 28.04 6/22/2010 Outperform 5Y $4.88 -99.85% +85.22% -185.06 0 Comment
obsoleteaccount < 20 6/21/2010 Outperform 5Y $4.91 -99.85% +85.69% -185.54 0 Comment
jroren 99.40 6/21/2010 Underperform 3M $5.36 -99.86% +82.42% +182.28 0 Comment
iddqkfyou < 20 5/11/2010 Outperform 5Y $6.30 -99.88% +79.33% -179.21 1 Comment
asitka 27.81 5/3/2010 Outperform 1Y $8.74 -99.91% +72.85% -172.77 0 Comment
Genomac 41.09 4/26/2010 Outperform 5Y $9.58 -99.92% +69.35% -169.27 0 Comment
HotDdogv2 < 20 4/26/2010 Outperform 5Y $9.58 -99.92% +69.35% -169.27 0 Comment
aliuce 30.90 4/23/2010 Outperform NS $9.53 -99.92% +70.14% -170.06 0 Comment
iamvoltron 24.47 4/22/2010 Outperform 5Y $8.47 -99.91% +72.23% -172.14 0 Comment
markantonythe3rd 31.34 4/20/2010 Outperform 5Y $8.21 -99.91% +71.10% -171.01 0 Comment
dashark44 95.60 4/19/2010 Outperform 5Y $7.81 -99.90% +73.72% -173.63 0 Comment
Powderiver < 20 4/12/2010 Outperform 5Y $7.94 -99.91% +72.35% -172.25 0 Comment
manjux < 20 4/1/2010 Underperform 3M $7.32 -99.90% +75.13% +175.02 0 Comment
blue2fire < 20 3/22/2010 Outperform 5Y $7.39 -99.90% +78.95% -178.85 0 Comment
StThomasMoreEsq2 93.30 12/29/2009 2/19/2010 Outperform 3M $9.89 -99.92% +83.07% -182.99 0 Comment
HasOrHasNot 28.85 1/28/2010 Outperform 3Y $10.04 -99.93% +87.23% -187.16 0 Comment
FreeMortal 29.14 1/20/2010 Outperform 5Y $10.34 -99.93% +81.73% -181.65 0 Comment
StGiannaMolla < 20 1/11/2010 Outperform 5Y $10.53 -99.93% +79.81% -179.74 0 Comment
Clockworker < 20 1/6/2010 Outperform 5Y $9.84 -99.92% +81.66% -181.59 0 Comment
TMFPlatoish 97.00 12/16/2009 Outperform 5Y $9.27 -99.92% +84.29% -184.21 0 Comment
chinneymartin 75.24 11/13/2009 Outperform 5Y $13.20 -99.94% +87.73% -187.67 0 Comment
wkcgx2 < 20 11/9/2009 Outperform 5Y $13.18 -99.94% +90.12% -190.07 0 Comment
outperformONLY < 20 10/19/2009 Outperform 5Y $19.49 -99.96% +89.19% -189.15 0 Comment
pennycruncher 62.10 10/19/2009 Outperform 5Y $19.49 -99.96% +89.19% -189.15 0 Comment
GIGManager < 20 10/8/2009 Outperform 3Y $19.24 -99.96% +93.27% -193.23 0 Comment
TotalStrange 96.20 8/12/2009 Outperform 1Y $14.58 -99.95% +105.79% -205.74 0 Comment
jddubya < 20 6/5/2009 Outperform 5Y $14.81 -99.95% +119.95% -219.90 0 Comment
TXmaverick < 20 6/2/2009 Underperform 3W $14.00 -99.95% +119.57% +219.51 1 Comment
marcet 71.74 5/28/2009 Outperform 5Y $13.26 -99.94% +129.36% -229.30 0 Comment
cwimbish 38.75 5/28/2009 Outperform 5Y $11.46 -99.93% +130.49% -230.43 1 Comment
theMovement 83.08 5/21/2009 Outperform 1Y $9.86 -99.92% +133.07% -232.99 0 Comment
unstoppablepeon < 20 10/27/2008 Underperform NS $6.01 -99.88% +144.76% +244.64 1 Comment
moonleg 22.28 10/22/2008 Underperform 1Y $6.45 -99.88% +127.02% +226.91 0 Comment
Chiownknee 77.36 10/20/2008 Outperform 5Y $8.28 -99.91% +119.70% -219.61 0 Comment
IWalker182 20.98 10/17/2008 Outperform NS $8.44 -99.91% +122.53% -222.44 0 Comment
wakoma < 20 10/8/2008 Outperform NS $12.80 -99.94% +117.07% -217.02 1 Comment
istilldontcare 95.21 9/18/2008 Outperform 5Y $17.34 -99.96% +82.05% -182.01 0 Comment
unotsomuch < 20 8/20/2008 Outperform 3Y $19.10 -99.96% +67.16% -167.12 0 Comment
ejtrains 54.57 8/11/2008 Outperform NS $20.00 -99.96% +64.44% -164.40 0 Comment
joetheboss 42.01 6/11/2008 Outperform 3Y $19.57 -99.96% +58.43% -158.39 1 Comment
Sqwii < 20 6/10/2008 Outperform 1Y $20.32 -99.96% +56.96% -156.92 1 Comment
floridabull33 59.76 5/22/2008 Outperform 3M $20.64 -99.96% +53.56% -153.53 0 Comment
GDragonsDad 61.82 5/7/2008 Outperform NS $19.04 -99.96% +51.68% -151.64 0 Comment
TexasGeoTech < 20 4/30/2008 Outperform 3M $19.04 -99.96% +52.99% -152.95 0 Comment
JCASS714 55.54 4/29/2008 Outperform 5Y $18.82 -99.96% +53.59% -153.55 0 Comment
tuckerjack 24.32 4/17/2008 Outperform 5Y $19.60 -99.96% +57.13% -157.10 0 Comment
greengal1 < 20 4/17/2008 Outperform 3Y $19.60 -99.96% +57.13% -157.10 1 Comment
ctnotebo 44.37 4/11/2008 Outperform 3Y $17.56 -99.96% +58.68% -158.64 0 Comment
louisianacoonie 25.37 3/31/2008 Outperform NS $17.95 -99.96% +62.05% -162.01 0 Comment
bengalmomof4 84.88 3/28/2008 Underperform 3M $17.78 -99.96% +60.91% +160.87 0 Comment
chad07gt < 20 3/27/2008 Outperform NS $17.78 -99.96% +60.70% -160.66 0 Comment
MoltenTofu < 20 3/14/2008 Outperform NS $17.34 -99.96% +61.97% -161.92 0 Comment
AgendaPacific 35.13 3/14/2008 Outperform 3Y $17.34 -99.96% +61.97% -161.92 0 Comment
ToeInsider 39.65 3/10/2008 Outperform NS $16.26 -99.95% +65.67% -165.62 0 Comment
altitudeaddict 30.27 2/28/2008 Outperform 5Y $17.94 -99.96% +56.70% -156.66 0 Comment
tritterup 62.49 2/26/2008 Outperform NS $18.36 -99.96% +55.73% -155.69 0 Comment
arindamd < 20 2/26/2008 Outperform 1Y $17.79 -99.96% +56.72% -156.68 1 Comment
dmgchess 66.49 2/20/2008 Outperform 1Y $17.66 -99.96% +60.50% -160.46 0 Comment
aalvarma < 20 2/20/2008 Outperform 1Y $17.66 -99.96% +60.50% -160.46 0 Comment
thetoxman 80.54 2/14/2008 Outperform 1Y $17.31 -99.96% +57.03% -156.99 0 Comment
thatguy99 31.73 2/5/2008 Outperform 5Y $17.79 -99.96% +58.20% -158.16 0 Comment
mopomi 73.99 1/24/2008 Outperform 5Y $18.76 -99.96% +60.27% -160.23 0 Comment
ATWDLimited < 20 1/23/2008 Outperform NS $18.34 -99.96% +65.65% -165.60 0 Comment
financeman101 < 20 1/17/2008 Outperform NS $16.85 -99.96% +61.46% -161.42 0 Comment
evreeland 29.25 1/16/2008 Outperform 1Y $16.25 -99.95% +57.01% -156.97 0 Comment
Obyss 52.28 12/31/2007 Outperform 3W $19.14 -99.96% +46.20% -146.16 0 Comment
Kenster35OR < 20 12/24/2007 Outperform 1Y $20.20 -99.96% +44.51% -144.47 0 Comment
StockRakedotcom < 20 12/13/2007 Outperform NS $22.40 -99.97% +45.76% -145.73 0 Comment
everything4less 51.01 12/13/2007 Outperform 1Y $22.40 -99.97% +45.76% -145.73 0 Comment
beachlokal < 20 12/12/2007 Outperform 5Y $23.10 -99.97% +44.61% -144.58 0 Comment
WavingSpices < 20 12/5/2007 Outperform NS $22.10 -99.97% +45.82% -145.79 0 Comment
SaltyGenes 44.68 11/27/2007 Outperform 5Y $22.14 -99.97% +52.53% -152.49 0 Comment
apper < 20 11/21/2007 Outperform 5Y $22.58 -99.97% +52.12% -152.09 0 Comment
ProjectJack < 20 11/5/2007 Outperform 1Y $19.90 -99.96% +43.83% -143.79 0 Comment
IntenseSpider 88.68 10/25/2007 Outperform NS $22.86 -99.97% +43.90% -143.86 0 Comment
tv5cents 94.71 10/23/2007 Outperform 5Y $22.00 -99.97% +42.74% -142.71 0 Comment
JR9901 85.19 10/22/2007 Outperform 5Y $21.85 -99.97% +45.23% -145.19 0 Comment
Garranova 89.97 10/22/2007 Outperform NS $21.85 -99.97% +45.23% -145.19 0 Comment
cleveland503 85.03 10/15/2007 Outperform NS $24.60 -99.97% +38.35% -138.32 0 Comment
ATLDARK31 < 20 10/12/2007 Outperform 5Y $24.50 -99.97% +39.07% -139.04 0 Comment
Results 1 - 99 of 119 : 1 2 Next »

Featured Broker Partners


Advertisement